Time;durP1;ratioP1;P1;durP2;ratioP2;P2;SDS_P1;SDS_P2;PMS_P1;PMS_P2;Temp;Humidity;BMP_temperature;BMP_pressure;BME280_temperature;BME280_humidity;BME280_pressure;Samples;Min_cycle;Max_cycle;Signal;HPM_P1;HPM_P2
2022/12/04 00:01:12;;;;;;;20.77;13.10;;;;;;;;;;5060476;28;20290;-71
2022/12/04 00:03:40;;;;;;;18.33;12.47;;;;;;;;;;5060214;28;20322;-72
2022/12/04 00:06:09;;;;;;;19.30;12.87;;;;;;;;;;5060533;28;20207;-71
2022/12/04 00:08:37;;;;;;;21.37;12.97;;;;;;;;;;5058658;28;20230;-71
2022/12/04 00:11:06;;;;;;;18.53;11.97;;;;;;;;;;5056836;28;20225;-71
2022/12/04 00:13:35;;;;;;;19.90;11.80;;;;;;;;;;5060111;28;20238;-71
2022/12/04 00:16:05;;;;;;;22.10;13.10;;;;;;;;;;5060374;28;20499;-71
2022/12/04 00:18:34;;;;;;;20.37;12.30;;;;;;;;;;5060297;28;20473;-71
2022/12/04 00:21:03;;;;;;;20.47;11.60;;;;;;;;;;5060253;28;20441;-71
2022/12/04 00:23:31;;;;;;;20.20;11.93;;;;;;;;;;5054657;28;20477;-71
2022/12/04 00:26:00;;;;;;;17.53;10.83;;;;;;;;;;5058314;28;20953;-71
2022/12/04 00:28:28;;;;;;;20.03;12.20;;;;;;;;;;5059600;28;20996;-71
2022/12/04 00:30:56;;;;;;;20.43;11.13;;;;;;;;;;5058840;28;20461;-71
2022/12/04 00:33:25;;;;;;;20.53;11.87;;;;;;;;;;5059610;28;20983;-71
2022/12/04 00:35:57;;;;;;;20.23;11.90;;;;;;;;;;5059684;28;20453;-71
2022/12/04 00:38:25;;;;;;;18.57;11.50;;;;;;;;;;5059787;28;20520;-71
2022/12/04 00:40:53;;;;;;;20.90;12.27;;;;;;;;;;5059494;28;20501;-71
2022/12/04 00:43:22;;;;;;;18.83;11.37;;;;;;;;;;5059574;28;20466;-71
2022/12/04 00:45:50;;;;;;;20.77;12.20;;;;;;;;;;5059585;28;20484;-71
2022/12/04 00:48:18;;;;;;;16.47;11.17;;;;;;;;;;5059663;28;20571;-71
2022/12/04 00:50:48;;;;;;;19.23;11.53;;;;;;;;;;5059314;28;20463;-71
2022/12/04 00:53:16;;;;;;;20.93;11.00;;;;;;;;;;5058579;28;20461;-71
2022/12/04 00:55:44;;;;;;;19.63;11.07;;;;;;;;;;5059270;28;20811;-71
2022/12/04 00:58:12;;;;;;;18.73;11.50;;;;;;;;;;5059350;28;20445;-71
2022/12/04 01:00:41;;;;;;;17.00;10.97;;;;;;;;;;5046334;28;20441;-71
2022/12/04 01:03:09;;;;;;;17.63;10.40;;;;;;;;;;5059059;28;20445;-71
2022/12/04 01:05:41;;;;;;;16.37;10.33;;;;;;;;;;5059557;28;20458;-71
2022/12/04 01:08:11;;;;;;;21.30;12.43;;;;;;;;;;5059002;28;20489;-71
2022/12/04 01:10:40;;;;;;;17.37;11.60;;;;;;;;;;5051670;28;20485;-72
2022/12/04 01:13:08;;;;;;;22.07;12.20;;;;;;;;;;5058032;28;20441;-72
2022/12/04 01:15:38;;;;;;;18.60;11.70;;;;;;;;;;5059088;28;20516;-71
2022/12/04 01:18:06;;;;;;;19.77;11.83;;;;;;;;;;5054090;28;20461;-71
2022/12/04 01:20:34;;;;;;;21.40;12.50;;;;;;;;;;5058875;28;20225;-71
2022/12/04 01:23:02;;;;;;;20.33;12.23;;;;;;;;;;5054855;28;20453;-71
2022/12/04 01:25:32;;;;;;;21.50;11.90;;;;;;;;;;5058595;28;20441;-71
2022/12/04 01:28:00;;;;;;;21.73;12.60;;;;;;;;;;5058394;28;20484;-71
2022/12/04 01:30:28;;;;;;;17.97;11.13;;;;;;;;;;5058471;28;20783;-71
2022/12/04 01:32:56;;;;;;;19.70;12.20;;;;;;;;;;5058827;28;20437;-71
2022/12/04 01:35:24;;;;;;;23.73;12.57;;;;;;;;;;5058370;28;20843;-71
2022/12/04 01:37:52;;;;;;;18.30;10.83;;;;;;;;;;5058424;28;20468;-71
2022/12/04 01:40:20;;;;;;;23.83;12.40;;;;;;;;;;5057429;28;20466;-71
2022/12/04 01:42:49;;;;;;;21.43;12.33;;;;;;;;;;5057713;28;20949;-71
2022/12/04 01:45:41;;;;;;;20.77;11.77;;;;;;;;;;5058468;28;20469;-71
2022/12/04 01:48:13;;;;;;;17.93;11.00;;;;;;;;;;5048122;28;20480;-71
2022/12/04 01:50:42;;;;;;;19.13;11.40;;;;;;;;;;5058625;28;20453;-71
2022/12/04 01:53:10;;;;;;;20.93;12.57;;;;;;;;;;5058202;28;20441;-71
2022/12/04 01:55:38;;;;;;;18.67;12.03;;;;;;;;;;5058622;28;20456;-71
2022/12/04 01:58:08;;;;;;;21.30;12.17;;;;;;;;;;5056962;28;20493;-71
2022/12/04 02:00:36;;;;;;;21.43;11.57;;;;;;;;;;5058051;28;20478;-71
2022/12/04 02:03:05;;;;;;;21.83;11.07;;;;;;;;;;5058127;28;20949;-71
2022/12/04 02:05:33;;;;;;;17.13;11.67;;;;;;;;;;5057948;28;20453;-71
2022/12/04 02:08:04;;;;;;;18.97;11.60;;;;;;;;;;5057994;28;20445;-71
2022/12/04 02:10:36;;;;;;;18.97;11.70;;;;;;;;;;5058302;28;20532;-72
2022/12/04 02:13:07;;;;;;;18.93;11.70;;;;;;;;;;5057201;28;20513;-72
2022/12/04 02:15:39;;;;;;;19.00;11.97;;;;;;;;;;5052739;28;20823;-72
2022/12/04 02:18:10;;;;;;;19.93;11.23;;;;;;;;;;5057835;28;20441;-72
2022/12/04 02:20:41;;;;;;;24.53;12.63;;;;;;;;;;5057751;28;20453;-72
2022/12/04 02:23:29;;;;;;;18.40;11.70;;;;;;;;;;5058048;28;20449;-72
2022/12/04 02:26:01;;;;;;;18.07;11.23;;;;;;;;;;5048400;28;20464;-72
2022/12/04 02:28:34;;;;;;;17.07;11.60;;;;;;;;;;5049547;28;20481;-72
2022/12/04 02:31:02;;;;;;;15.50;9.97;;;;;;;;;;5044949;28;20467;-71
2022/12/04 02:33:34;;;;;;;18.33;11.10;;;;;;;;;;5056061;28;20477;-72
2022/12/04 02:36:05;;;;;;;15.07;10.33;;;;;;;;;;5057528;28;20480;-72
2022/12/04 02:38:36;;;;;;;16.10;10.23;;;;;;;;;;5057828;28;20460;-72
2022/12/04 02:41:08;;;;;;;16.20;10.73;;;;;;;;;;5055665;28;20917;-72
2022/12/04 02:43:40;;;;;;;16.73;10.40;;;;;;;;;;5056058;28;20481;-72
2022/12/04 02:46:11;;;;;;;17.97;9.53;;;;;;;;;;5057532;28;20457;-72
2022/12/04 02:48:41;;;;;;;15.07;9.20;;;;;;;;;;5057433;28;20566;-72
2022/12/04 02:51:10;;;;;;;17.37;10.57;;;;;;;;;;5051910;28;20238;-71
2022/12/04 02:53:40;;;;;;;14.80;9.60;;;;;;;;;;5057475;28;20528;-71
2022/12/04 02:56:09;;;;;;;15.23;10.13;;;;;;;;;;5056603;28;20489;-71
2022/12/04 02:58:41;;;;;;;17.17;10.10;;;;;;;;;;5057321;28;20445;-72
2022/12/04 03:01:18;;;;;;;15.87;9.07;;;;;;;;;;5057067;28;20453;-72
2022/12/04 03:03:49;;;;;;;12.90;8.50;;;;;;;;;;5057435;28;20485;-72
2022/12/04 03:06:18;;;;;;;12.53;8.87;;;;;;;;;;5057335;28;20540;-71
2022/12/04 03:08:47;;;;;;;12.63;8.67;;;;;;;;;;5057513;28;20515;-72
2022/12/04 03:11:15;;;;;;;13.87;8.87;;;;;;;;;;5056030;28;20457;-71
2022/12/04 03:13:47;;;;;;;13.27;8.30;;;;;;;;;;5056597;28;21000;-72
2022/12/04 03:16:17;;;;;;;14.73;9.33;;;;;;;;;;5057134;28;20597;-72
2022/12/04 03:18:47;;;;;;;12.33;8.70;;;;;;;;;;5057377;28;20441;-71
2022/12/04 03:21:16;;;;;;;12.60;8.40;;;;;;;;;;5057734;28;20453;-71
2022/12/04 03:23:46;;;;;;;15.47;9.67;;;;;;;;;;5058273;28;20904;-71
2022/12/04 03:26:19;;;;;;;11.73;7.90;;;;;;;;;;5060339;28;20457;-71
2022/12/04 03:28:51;;;;;;;13.00;8.70;;;;;;;;;;5060845;28;20449;-71
2022/12/04 03:31:22;;;;;;;15.83;9.10;;;;;;;;;;5061278;28;20531;-70
2022/12/04 03:33:51;;;;;;;12.27;8.13;;;;;;;;;;5060791;28;20465;-71
2022/12/04 03:36:22;;;;;;;13.70;8.87;;;;;;;;;;5060898;28;20441;-71
2022/12/04 03:38:53;;;;;;;11.90;8.50;;;;;;;;;;5060914;28;20449;-71
2022/12/04 03:41:25;;;;;;;13.37;9.03;;;;;;;;;;5059846;28;20485;-71
2022/12/04 03:43:57;;;;;;;13.73;9.67;;;;;;;;;;5060668;28;20507;-71
2022/12/04 03:46:28;;;;;;;13.93;9.27;;;;;;;;;;5060875;28;20445;-71
2022/12/04 03:48:59;;;;;;;14.63;9.30;;;;;;;;;;5060579;28;20461;-71
2022/12/04 03:51:31;;;;;;;14.27;9.37;;;;;;;;;;5060327;28;20471;-71
2022/12/04 03:54:02;;;;;;;14.67;9.53;;;;;;;;;;5060472;28;20548;-71
2022/12/04 03:56:32;;;;;;;16.00;9.27;;;;;;;;;;5059402;28;20480;-71
2022/12/04 03:59:05;;;;;;;14.13;9.10;;;;;;;;;;5060282;28;20457;-71
2022/12/04 04:01:35;;;;;;;14.97;8.90;;;;;;;;;;5060452;28;20473;-71
2022/12/04 04:04:06;;;;;;;16.00;8.63;;;;;;;;;;5059573;28;20473;-71
2022/12/04 04:06:37;;;;;;;14.53;9.33;;;;;;;;;;5060508;28;20472;-71
2022/12/04 04:09:09;;;;;;;13.47;8.30;;;;;;;;;;5060264;28;20634;-71
2022/12/04 04:11:40;;;;;;;13.60;9.07;;;;;;;;;;5060286;28;20530;-71
2022/12/04 04:25:24;;;;;;;14.43;7.97;;;;;;;;;;5045716;28;20465;-71
2022/12/04 04:27:52;;;;;;;10.23;7.43;;;;;;;;;;5048233;28;20532;-71
2022/12/04 04:30:22;;;;;;;14.83;7.73;;;;;;;;;;5060003;28;20481;-71
2022/12/04 04:32:52;;;;;;;10.87;7.53;;;;;;;;;;5059173;28;20797;-71
2022/12/04 04:35:21;;;;;;;13.43;8.80;;;;;;;;;;5059377;28;20544;-71
2022/12/04 04:37:53;;;;;;;13.57;8.80;;;;;;;;;;5059639;28;21001;-71
2022/12/04 04:40:23;;;;;;;15.27;9.20;;;;;;;;;;5059748;28;20452;-70
2022/12/04 04:42:55;;;;;;;10.87;8.33;;;;;;;;;;5059223;28;20477;-71
2022/12/04 04:45:26;;;;;;;12.23;8.37;;;;;;;;;;5059856;28;20469;-70
2022/12/04 04:47:57;;;;;;;11.73;7.60;;;;;;;;;;5058759;28;20839;-70
2022/12/04 04:50:25;;;;;;;12.17;7.97;;;;;;;;;;5051309;28;20521;-71
2022/12/04 04:52:54;;;;;;;14.07;8.53;;;;;;;;;;5057465;28;20445;-70
2022/12/04 04:55:23;;;;;;;11.70;7.80;;;;;;;;;;5059653;28;20508;-71
2022/12/04 04:57:51;;;;;;;14.80;9.03;;;;;;;;;;5058886;28;20937;-71
2022/12/04 05:00:20;;;;;;;11.30;8.40;;;;;;;;;;5059287;28;20488;-71
2022/12/04 05:02:50;;;;;;;13.57;7.63;;;;;;;;;;5058521;28;20460;-71
2022/12/04 05:05:18;;;;;;;14.37;9.37;;;;;;;;;;5058945;28;21050;-71
2022/12/04 05:07:46;;;;;;;12.97;8.47;;;;;;;;;;5059238;28;20442;-71
2022/12/04 05:10:14;;;;;;;13.17;8.23;;;;;;;;;;5059323;28;20481;-71
2022/12/04 05:12:42;;;;;;;12.13;8.00;;;;;;;;;;5058661;28;20452;-71
2022/12/04 05:15:10;;;;;;;12.63;8.43;;;;;;;;;;5059252;28;20497;-71
2022/12/04 05:17:38;;;;;;;14.57;8.03;;;;;;;;;;5058350;28;20531;-71
2022/12/04 05:20:07;;;;;;;13.10;8.27;;;;;;;;;;5059259;28;20477;-70
2022/12/04 05:22:36;;;;;;;12.70;7.87;;;;;;;;;;5058766;28;20533;-71
2022/12/04 05:25:04;;;;;;;10.27;7.60;;;;;;;;;;5058697;28;21011;-70
2022/12/04 05:27:33;;;;;;;13.70;7.77;;;;;;;;;;5058753;28;20533;-70
2022/12/04 05:30:00;;;;;;;10.13;7.57;;;;;;;;;;5058800;28;20508;-70
2022/12/04 05:32:29;;;;;;;12.30;8.03;;;;;;;;;;5058255;28;20457;-71
2022/12/04 05:34:57;;;;;;;12.80;7.63;;;;;;;;;;5058530;28;20552;-71
2022/12/04 05:37:27;;;;;;;14.37;7.83;;;;;;;;;;5058586;28;20450;-71
2022/12/04 05:39:55;;;;;;;12.17;8.37;;;;;;;;;;5058530;28;20469;-71
2022/12/04 05:42:23;;;;;;;11.87;7.70;;;;;;;;;;5058122;28;20473;-71
2022/12/04 05:44:51;;;;;;;12.03;8.63;;;;;;;;;;5058419;28;20529;-71
2022/12/04 05:47:19;;;;;;;13.90;8.27;;;;;;;;;;5057022;28;20537;-71
2022/12/04 05:49:47;;;;;;;13.23;7.90;;;;;;;;;;5057536;28;20461;-71
2022/12/04 05:52:15;;;;;;;15.23;8.63;;;;;;;;;;5055614;28;20453;-71
2022/12/04 05:54:44;;;;;;;20.10;8.63;;;;;;;;;;5049621;28;20473;-71
2022/12/04 05:57:12;;;;;;;10.37;7.50;;;;;;;;;;5058035;28;20468;-71
2022/12/04 05:59:40;;;;;;;12.40;6.67;;;;;;;;;;5058127;28;20477;-71
2022/12/04 06:02:08;;;;;;;10.80;8.13;;;;;;;;;;5056813;28;20897;-70
2022/12/04 06:04:36;;;;;;;13.17;8.10;;;;;;;;;;5057740;28;20481;-73
2022/12/04 06:07:05;;;;;;;12.73;8.47;;;;;;;;;;5057713;28;20473;-70
2022/12/04 06:09:33;;;;;;;12.27;8.80;;;;;;;;;;5057202;28;20465;-71
2022/12/04 06:12:03;;;;;;;17.20;8.80;;;;;;;;;;5056689;28;20538;-71
2022/12/04 06:14:31;;;;;;;15.53;9.30;;;;;;;;;;5049381;28;20474;-70
2022/12/04 06:17:06;;;;;;;12.20;8.43;;;;;;;;;;5050309;28;20451;-71
2022/12/04 06:19:34;;;;;;;15.07;9.10;;;;;;;;;;5047710;28;20545;-70
2022/12/04 06:22:02;;;;;;;13.13;8.00;;;;;;;;;;5044989;28;20462;-71
2022/12/04 06:24:30;;;;;;;12.67;8.33;;;;;;;;;;5048978;28;20497;-71
2022/12/04 06:26:59;;;;;;;11.57;7.77;;;;;;;;;;5044679;28;20456;-71
2022/12/04 06:29:48;;;;;;;13.60;8.47;;;;;;;;;;5046773;28;20441;-71
2022/12/04 06:32:16;;;;;;;12.83;7.87;;;;;;;;;;5047191;28;20515;-71
2022/12/04 06:34:50;;;;;;;9.63;7.33;;;;;;;;;;5047247;28;20454;-71
2022/12/04 06:37:18;;;;;;;10.83;8.50;;;;;;;;;;5044548;28;20814;-71
2022/12/04 06:39:46;;;;;;;12.17;8.17;;;;;;;;;;5045330;28;20477;-71
2022/12/04 06:42:14;;;;;;;11.43;7.70;;;;;;;;;;5047013;28;20469;-70
2022/12/04 06:44:43;;;;;;;11.20;8.03;;;;;;;;;;5046806;28;20920;-71
2022/12/04 06:47:12;;;;;;;12.17;8.53;;;;;;;;;;5047018;28;20201;-71
2022/12/04 06:49:41;;;;;;;12.67;8.67;;;;;;;;;;5046711;28;20964;-71
2022/12/04 06:52:15;;;;;;;14.60;8.43;;;;;;;;;;5045762;28;20250;-71
2022/12/04 06:54:43;;;;;;;12.13;8.40;;;;;;;;;;5045996;28;20457;-71
2022/12/04 06:57:14;;;;;;;14.23;9.43;;;;;;;;;;5047642;28;20465;-71
2022/12/04 06:59:42;;;;;;;15.13;9.37;;;;;;;;;;5054023;28;20441;-70
2022/12/04 07:02:14;;;;;;;11.97;8.73;;;;;;;;;;5051145;28;20302;-70
2022/12/04 07:04:43;;;;;;;12.20;8.03;;;;;;;;;;5053986;28;20501;-71
2022/12/04 07:07:11;;;;;;;14.37;8.70;;;;;;;;;;5055536;28;20290;-71
2022/12/04 07:09:39;;;;;;;14.57;8.67;;;;;;;;;;5059956;28;20233;-71
2022/12/04 07:12:07;;;;;;;12.50;8.53;;;;;;;;;;5059695;28;20709;-72
2022/12/04 07:14:35;;;;;;;13.33;8.37;;;;;;;;;;5054732;28;20283;-71
2022/12/04 07:17:03;;;;;;;11.53;8.03;;;;;;;;;;5051456;28;20444;-71
2022/12/04 07:19:33;;;;;;;12.53;8.93;;;;;;;;;;5055526;28;20211;-71
2022/12/04 07:22:01;;;;;;;13.33;8.70;;;;;;;;;;5061502;28;20219;-71
2022/12/04 07:24:29;;;;;;;13.07;8.57;;;;;;;;;;5060445;28;20682;-71
2022/12/04 07:26:57;;;;;;;12.57;8.27;;;;;;;;;;5060346;28;20218;-71
2022/12/04 07:29:25;;;;;;;11.13;7.97;;;;;;;;;;5057548;28;20481;-71
2022/12/04 07:31:53;;;;;;;13.50;8.50;;;;;;;;;;5061082;28;20483;-71
2022/12/04 07:34:21;;;;;;;13.43;8.40;;;;;;;;;;5053524;28;20469;-71
2022/12/04 07:36:50;;;;;;;11.67;8.50;;;;;;;;;;5059479;28;20456;-71
2022/12/04 07:39:18;;;;;;;13.13;8.60;;;;;;;;;;5060852;28;20532;-72
2022/12/04 07:41:47;;;;;;;12.07;8.67;;;;;;;;;;5059315;28;20527;-65
2022/12/04 07:44:15;;;;;;;14.23;8.27;;;;;;;;;;5060422;28;20487;-65
2022/12/04 07:46:43;;;;;;;15.33;8.97;;;;;;;;;;5058423;28;20646;-65
2022/12/04 07:49:11;;;;;;;15.50;9.50;;;;;;;;;;5049760;28;20449;-65
2022/12/04 07:51:39;;;;;;;15.30;9.30;;;;;;;;;;5053074;28;20473;-65
2022/12/04 07:54:08;;;;;;;14.90;9.50;;;;;;;;;;5058831;28;20541;-65
2022/12/04 07:56:36;;;;;;;13.60;9.50;;;;;;;;;;5060322;28;20477;-66
2022/12/04 07:59:04;;;;;;;14.77;9.57;;;;;;;;;;5060419;28;20476;-65
2022/12/04 08:01:32;;;;;;;16.33;9.97;;;;;;;;;;5050739;28;20458;-65
2022/12/04 08:04:02;;;;;;;16.13;9.93;;;;;;;;;;5056503;28;21000;-65
2022/12/04 08:06:30;;;;;;;16.63;10.33;;;;;;;;;;5059071;28;20718;-65
2022/12/04 08:08:58;;;;;;;15.50;10.00;;;;;;;;;;5059254;28;20469;-65
2022/12/04 08:11:34;;;;;;;16.80;9.80;;;;;;;;;;5059680;28;20226;-65
2022/12/04 08:14:04;;;;;;;16.30;9.27;;;;;;;;;;5059649;28;20258;-65
2022/12/04 08:16:32;;;;;;;15.93;10.20;;;;;;;;;;5060059;28;20203;-65
2022/12/04 08:19:00;;;;;;;15.23;9.40;;;;;;;;;;5060130;28;20260;-65
2022/12/04 08:21:29;;;;;;;12.40;9.00;;;;;;;;;;5060022;28;20211;-65
2022/12/04 08:23:58;;;;;;;13.17;9.27;;;;;;;;;;5059295;28;20234;-65
2022/12/04 08:26:27;;;;;;;14.37;10.20;;;;;;;;;;5059746;28;20449;-65
2022/12/04 08:28:57;;;;;;;15.53;9.33;;;;;;;;;;5055739;28;20445;-65
2022/12/04 08:31:26;;;;;;;13.57;10.40;;;;;;;;;;5058389;28;20487;-65
2022/12/04 08:33:55;;;;;;;17.90;10.13;;;;;;;;;;5059595;28;20453;-66
2022/12/04 08:36:24;;;;;;;15.57;10.67;;;;;;;;;;5059459;28;20451;-66
2022/12/04 08:38:52;;;;;;;18.57;10.93;;;;;;;;;;5059338;28;20701;-66
2022/12/04 08:41:22;;;;;;;17.23;10.00;;;;;;;;;;5055561;28;20481;-65
2022/12/04 08:43:53;;;;;;;19.17;11.20;;;;;;;;;;5059185;28;20568;-66
2022/12/04 08:46:23;;;;;;;18.10;11.67;;;;;;;;;;5059579;28;20449;-66
2022/12/04 08:48:51;;;;;;;19.63;10.97;;;;;;;;;;5059465;28;20476;-66
2022/12/04 08:51:21;;;;;;;16.83;10.77;;;;;;;;;;5059062;28;20468;-66
2022/12/04 08:53:52;;;;;;;19.90;12.10;;;;;;;;;;5059200;28;20588;-66
2022/12/04 08:56:20;;;;;;;20.17;11.03;;;;;;;;;;5050159;28;20452;-66
2022/12/04 08:58:48;;;;;;;20.43;12.17;;;;;;;;;;5058525;28;20589;-66
2022/12/04 09:01:16;;;;;;;19.60;12.17;;;;;;;;;;5058992;28;20449;-66
2022/12/04 09:03:46;;;;;;;21.83;12.47;;;;;;;;;;5057955;28;20469;-66
2022/12/04 09:06:14;;;;;;;23.43;13.33;;;;;;;;;;5058298;28;20457;-66
2022/12/04 09:08:43;;;;;;;20.37;11.63;;;;;;;;;;5058750;28;20457;-66
2022/12/04 09:11:12;;;;;;;22.97;12.03;;;;;;;;;;5058084;28;20493;-66
2022/12/04 09:13:40;;;;;;;20.57;12.90;;;;;;;;;;5057391;28;20829;-66
2022/12/04 09:16:09;;;;;;;19.70;12.33;;;;;;;;;;5058418;28;20532;-66
2022/12/04 09:18:37;;;;;;;21.30;12.60;;;;;;;;;;5058048;28;20465;-66
2022/12/04 09:21:08;;;;;;;23.33;12.77;;;;;;;;;;5055119;28;20454;-65
2022/12/04 09:23:37;;;;;;;19.50;12.50;;;;;;;;;;5058042;28;20457;-65
2022/12/04 09:26:06;;;;;;;20.60;12.03;;;;;;;;;;5057082;28;20964;-66
2022/12/04 09:28:34;;;;;;;19.67;12.73;;;;;;;;;;5057652;28;20489;-65
2022/12/04 09:31:04;;;;;;;19.37;12.83;;;;;;;;;;5058157;28;20487;-65
2022/12/04 09:33:33;;;;;;;20.40;12.60;;;;;;;;;;5056041;28;20493;-66
2022/12/04 09:36:01;;;;;;;19.63;12.40;;;;;;;;;;5058000;28;20457;-66
2022/12/04 09:38:31;;;;;;;21.93;13.87;;;;;;;;;;5057856;28;20440;-65
2022/12/04 09:41:03;;;;;;;18.03;11.43;;;;;;;;;;5055833;28;20565;-66
2022/12/04 09:43:33;;;;;;;23.10;13.23;;;;;;;;;;5057436;28;20477;-66
2022/12/04 09:46:06;;;;;;;20.77;13.13;;;;;;;;;;5054585;28;20843;-66
2022/12/04 09:48:36;;;;;;;19.77;12.87;;;;;;;;;;5056656;28;20485;-66
2022/12/04 09:51:06;;;;;;;19.50;11.50;;;;;;;;;;5057154;28;20477;-66
2022/12/04 09:53:41;;;;;;;19.53;12.17;;;;;;;;;;5057305;28;20560;-66
2022/12/04 09:56:12;;;;;;;16.77;11.57;;;;;;;;;;5058327;28;20525;-66
2022/12/04 09:58:42;;;;;;;18.07;11.63;;;;;;;;;;5056747;28;20496;-66
2022/12/04 10:01:17;;;;;;;19.10;11.90;;;;;;;;;;5057375;28;20493;-65
2022/12/04 10:03:45;;;;;;;22.53;12.27;;;;;;;;;;5056834;28;20481;-66
2022/12/04 10:06:16;;;;;;;19.57;12.27;;;;;;;;;;5054094;28;20489;-66
2022/12/04 10:08:46;;;;;;;22.50;12.87;;;;;;;;;;5052670;28;20481;-66
2022/12/04 10:11:17;;;;;;;18.87;12.63;;;;;;;;;;5056129;28;20536;-66
2022/12/04 10:13:58;;;;;;;18.80;11.10;;;;;;;;;;5056608;28;20481;-66
2022/12/04 10:16:28;;;;;;;20.77;12.47;;;;;;;;;;5054783;28;20449;-66
2022/12/04 10:19:01;;;;;;;19.40;12.70;;;;;;;;;;5056944;28;20536;-66
2022/12/04 10:21:35;;;;;;;22.67;11.97;;;;;;;;;;5056439;28;20545;-66
2022/12/04 10:24:11;;;;;;;19.93;12.13;;;;;;;;;;5056932;28;20473;-65
2022/12/04 10:26:40;;;;;;;20.13;11.63;;;;;;;;;;5056347;28;20457;-65
2022/12/04 10:29:13;;;;;;;23.10;12.27;;;;;;;;;;5051459;28;20449;-65
2022/12/04 10:31:44;;;;;;;20.73;12.23;;;;;;;;;;5049848;28;20521;-65
2022/12/04 10:34:16;;;;;;;18.23;12.47;;;;;;;;;;5051826;28;20490;-65
2022/12/04 10:36:46;;;;;;;21.60;12.80;;;;;;;;;;5054162;28;20449;-65
2022/12/04 10:39:20;;;;;;;21.03;11.90;;;;;;;;;;5053231;28;20463;-64
2022/12/04 10:41:52;;;;;;;21.27;12.90;;;;;;;;;;5050884;28;20486;-64
2022/12/04 10:44:22;;;;;;;20.50;12.57;;;;;;;;;;5031654;28;20474;-64
2022/12/04 10:46:50;;;;;;;22.20;13.43;;;;;;;;;;5031724;28;20459;-64
2022/12/04 10:49:19;;;;;;;21.70;11.90;;;;;;;;;;5024032;28;20463;-64
2022/12/04 10:51:48;;;;;;;21.13;13.03;;;;;;;;;;5027028;28;20487;-64
2022/12/04 10:54:22;;;;;;;20.60;11.67;;;;;;;;;;5030518;28;20486;-64
2022/12/04 10:56:51;;;;;;;18.57;12.57;;;;;;;;;;5028905;28;20480;-64
2022/12/04 10:59:19;;;;;;;21.60;13.10;;;;;;;;;;5028173;28;20489;-64
2022/12/04 11:01:48;;;;;;;19.00;12.37;;;;;;;;;;5028784;28;20486;-64
2022/12/04 11:04:23;;;;;;;17.20;11.97;;;;;;;;;;5028351;28;20500;-64
2022/12/04 11:07:01;;;;;;;20.07;11.77;;;;;;;;;;5028258;28;20458;-64
2022/12/04 11:09:31;;;;;;;21.67;13.60;;;;;;;;;;5030665;28;20454;-64
2022/12/04 11:12:10;;;;;;;18.10;12.13;;;;;;;;;;5035501;28;20462;-65
2022/12/04 11:14:38;;;;;;;17.83;12.23;;;;;;;;;;5031966;28;20481;-64
2022/12/04 11:17:16;;;;;;;20.70;12.43;;;;;;;;;;5029496;28;20868;-63
2022/12/04 11:19:47;;;;;;;18.37;12.13;;;;;;;;;;5029734;28;20485;-64
2022/12/04 11:22:18;;;;;;;21.40;12.83;;;;;;;;;;5032139;28;20474;-64
2022/12/04 11:24:53;;;;;;;19.40;12.27;;;;;;;;;;5030461;28;20604;-65
2022/12/04 11:27:25;;;;;;;19.23;12.23;;;;;;;;;;5028124;28;20489;-64
2022/12/04 11:29:54;;;;;;;17.57;11.50;;;;;;;;;;5031375;28;20458;-65
2022/12/04 11:32:24;;;;;;;20.23;13.13;;;;;;;;;;5027805;28;20659;-64
2022/12/04 11:34:53;;;;;;;20.10;13.17;;;;;;;;;;5027822;28;20557;-65
2022/12/04 11:37:22;;;;;;;21.47;13.00;;;;;;;;;;5029428;28;20655;-64
2022/12/04 11:39:53;;;;;;;18.10;12.67;;;;;;;;;;5028743;28;20329;-65
2022/12/04 11:42:24;;;;;;;20.43;12.47;;;;;;;;;;5035712;28;20235;-65
2022/12/04 11:44:53;;;;;;;15.80;10.63;;;;;;;;;;5037019;28;20231;-65
2022/12/04 11:47:22;;;;;;;17.27;11.77;;;;;;;;;;5040156;28;20207;-65
2022/12/04 11:50:12;;;;;;;19.40;12.20;;;;;;;;;;5039570;28;20484;-65
2022/12/04 11:52:50;;;;;;;16.57;11.60;;;;;;;;;;5040046;28;20825;-66
2022/12/04 11:55:24;;;;;;;17.70;12.27;;;;;;;;;;5039309;28;20310;-65
2022/12/04 11:58:05;;;;;;;17.03;10.33;;;;;;;;;;5039148;28;20203;-65
2022/12/04 12:00:35;;;;;;;17.77;11.13;;;;;;;;;;5039278;28;20656;-66
2022/12/04 12:03:10;;;;;;;20.90;11.77;;;;;;;;;;5035034;28;20227;-65
2022/12/04 12:05:52;;;;;;;16.93;10.93;;;;;;;;;;5035444;28;20287;-65
2022/12/04 12:08:25;;;;;;;17.67;11.07;;;;;;;;;;5033765;28;20276;-66
2022/12/04 12:10:56;;;;;;;17.40;10.53;;;;;;;;;;5036832;28;20200;-66
2022/12/04 12:13:30;;;;;;;17.50;11.10;;;;;;;;;;5038691;28;20233;-64
2022/12/04 12:16:00;;;;;;;16.40;10.93;;;;;;;;;;5036838;28;20629;-65
2022/12/04 12:18:38;;;;;;;20.20;11.87;;;;;;;;;;5038235;28;20203;-64
2022/12/04 12:21:12;;;;;;;21.87;11.70;;;;;;;;;;5022826;28;20206;-65
2022/12/04 12:23:54;;;;;;;15.63;10.40;;;;;;;;;;5038607;28;20591;-64
2022/12/04 12:26:27;;;;;;;19.43;10.87;;;;;;;;;;5029704;28;20306;-65
2022/12/04 12:29:02;;;;;;;16.63;10.30;;;;;;;;;;5038694;28;20211;-65
2022/12/04 12:31:37;;;;;;;16.23;10.50;;;;;;;;;;5032006;28;20477;-64
2022/12/04 12:34:08;;;;;;;15.50;10.87;;;;;;;;;;5035855;28;20543;-64
2022/12/04 12:36:39;;;;;;;19.00;10.73;;;;;;;;;;5038546;28;20502;-64
2022/12/04 12:39:12;;;;;;;14.43;9.93;;;;;;;;;;5034520;28;20198;-64
2022/12/04 12:41:44;;;;;;;15.03;10.53;;;;;;;;;;5037322;28;20231;-64
2022/12/04 12:44:14;;;;;;;18.27;10.97;;;;;;;;;;5035275;28;20246;-64
2022/12/04 12:46:47;;;;;;;15.90;10.50;;;;;;;;;;5037527;28;20461;-64
2022/12/04 12:49:18;;;;;;;11.93;9.20;;;;;;;;;;5035425;28;20199;-64
2022/12/04 12:51:48;;;;;;;18.50;10.23;;;;;;;;;;5032874;28;20509;-64
2022/12/04 12:54:21;;;;;;;16.77;10.37;;;;;;;;;;5036530;28;20577;-64
2022/12/04 12:56:53;;;;;;;18.10;11.07;;;;;;;;;;5028491;28;20482;-64
2022/12/04 12:59:24;;;;;;;15.03;10.43;;;;;;;;;;5037095;28;20517;-63
2022/12/04 13:01:55;;;;;;;18.90;11.30;;;;;;;;;;5036832;28;20202;-63
2022/12/04 13:04:32;;;;;;;15.83;11.03;;;;;;;;;;5036913;28;20234;-63
2022/12/04 13:07:04;;;;;;;15.20;9.60;;;;;;;;;;5036110;28;20573;-64
2022/12/04 13:09:34;;;;;;;13.57;9.27;;;;;;;;;;5033120;28;20210;-67
2022/12/04 13:12:06;;;;;;;16.23;10.77;;;;;;;;;;5036886;28;20246;-66
2022/12/04 13:14:34;;;;;;;15.30;10.50;;;;;;;;;;5036203;28;20261;-66
2022/12/04 13:17:04;;;;;;;16.77;10.83;;;;;;;;;;5037230;28;20691;-66
2022/12/04 13:19:34;;;;;;;15.73;11.10;;;;;;;;;;5037122;28;20200;-66
2022/12/04 13:22:11;;;;;;;13.43;9.77;;;;;;;;;;5031697;28;20675;-66
2022/12/04 13:24:52;;;;;;;13.83;9.43;;;;;;;;;;5034150;28;20215;-66
2022/12/04 13:27:27;;;;;;;14.43;10.07;;;;;;;;;;5036171;28;20267;-66
2022/12/04 13:30:05;;;;;;;15.67;10.43;;;;;;;;;;5031847;28;20203;-66
2022/12/04 13:32:38;;;;;;;17.00;10.33;;;;;;;;;;5031885;28;20199;-65
2022/12/04 13:35:15;;;;;;;13.00;9.27;;;;;;;;;;5035744;28;20230;-68
2022/12/04 13:37:48;;;;;;;15.60;10.37;;;;;;;;;;5025219;28;20285;-68
2022/12/04 13:40:28;;;;;;;16.77;11.60;;;;;;;;;;5037498;28;20283;-68
2022/12/04 13:43:14;;;;;;;15.27;10.87;;;;;;;;;;5031384;28;20199;-69
2022/12/04 13:45:46;;;;;;;16.20;9.83;;;;;;;;;;5032829;28;20204;-68
2022/12/04 13:48:26;;;;;;;14.23;10.83;;;;;;;;;;5036390;28;20207;-68
2022/12/04 13:51:01;;;;;;;15.13;10.30;;;;;;;;;;5037078;28;20202;-68
2022/12/04 13:53:32;;;;;;;12.90;9.20;;;;;;;;;;5036242;28;20225;-68
2022/12/04 13:56:00;;;;;;;15.50;9.83;;;;;;;;;;5029208;28;20474;-69
2022/12/04 13:58:38;;;;;;;13.83;8.77;;;;;;;;;;5036818;28;20453;-68
2022/12/04 14:01:22;;;;;;;14.63;10.13;;;;;;;;;;5037750;28;20458;-68
2022/12/04 14:03:54;;;;;;;14.73;9.93;;;;;;;;;;5036922;28;20476;-67
2022/12/04 14:06:23;;;;;;;16.40;9.67;;;;;;;;;;5038177;28;20474;-67
2022/12/04 14:08:55;;;;;;;18.30;11.00;;;;;;;;;;5036030;28;20454;-68
2022/12/04 14:11:23;;;;;;;13.67;9.70;;;;;;;;;;5037244;28;20543;-67
2022/12/04 14:13:53;;;;;;;14.33;10.37;;;;;;;;;;5036773;28;20474;-67
2022/12/04 14:16:24;;;;;;;14.83;9.87;;;;;;;;;;5037544;28;20482;-67
2022/12/04 14:18:53;;;;;;;14.23;9.93;;;;;;;;;;5028116;28;20454;-66
2022/12/04 14:21:22;;;;;;;17.63;10.57;;;;;;;;;;5033168;28;20493;-67
2022/12/04 14:23:51;;;;;;;16.33;10.27;;;;;;;;;;5033826;28;20509;-67
2022/12/04 14:26:20;;;;;;;15.37;9.90;;;;;;;;;;5036252;28;20537;-69
2022/12/04 14:28:48;;;;;;;16.90;10.93;;;;;;;;;;5036711;28;20537;-65
2022/12/04 14:31:21;;;;;;;15.33;9.67;;;;;;;;;;5037921;28;20442;-65
2022/12/04 14:33:52;;;;;;;14.43;9.63;;;;;;;;;;5037708;28;20468;-66
2022/12/04 14:36:23;;;;;;;14.80;9.77;;;;;;;;;;5037537;28;20238;-66
2022/12/04 14:39:00;;;;;;;18.43;10.47;;;;;;;;;;5033558;28;20497;-66
2022/12/04 14:41:28;;;;;;;19.20;11.73;;;;;;;;;;5036845;28;20265;-67
2022/12/04 14:43:56;;;;;;;21.70;13.40;;;;;;;;;;5037136;28;20231;-67
2022/12/04 14:46:27;;;;;;;15.63;10.70;;;;;;;;;;5037237;28;20466;-67
2022/12/04 14:48:59;;;;;;;15.00;11.43;;;;;;;;;;5037761;28;20446;-67
2022/12/04 14:51:31;;;;;;;16.53;10.57;;;;;;;;;;5037386;28;20470;-67
2022/12/04 14:54:04;;;;;;;13.67;9.67;;;;;;;;;;5034358;28;20545;-68